Terminal Aerodrome Forecast
Issued by NWS Sterling, VA

Current Version | Previous Version | Graphics & Text | Print | Product List | Glossary On
Versions: 1 2 3 4 5 6 7 8 9 10 11 12 13 14 15 16 17 18 19 20 21 22
030
FTUS41 KLWX 192100 AAA
TAFIAD
TAF AMD
KIAD 192100Z 1921/2024 30019G27KT P6SM BKN050
     FM192300 29013G20KT P6SM BKN050
     FM200200 28009KT P6SM BKN045
     FM200400 28008KT P6SM FEW050 SCT200
     FM201800 24009KT P6SM FEW250=

USA.gov is the U.S. government's official web portal to all federal, state and local government web resources and services.